sensor_id;sensor_type;location;lat;lon;timestamp;P1;durP1;ratioP1;P2;durP2;ratioP2
61460;SDS011;47325;50.506;4.472;2023-11-18T00:05:37;12.50;;;7.40;;
61460;SDS011;47325;50.506;4.472;2023-11-18T00:11:24;12.60;;;7.30;;
61460;SDS011;47325;50.506;4.472;2023-11-18T00:17:08;13.80;;;7.50;;
61460;SDS011;47325;50.506;4.472;2023-11-18T00:22:52;12.20;;;7.40;;
61460;SDS011;47325;50.506;4.472;2023-11-18T00:28:38;12.50;;;7.10;;
61460;SDS011;47325;50.506;4.472;2023-11-18T00:34:24;11.70;;;6.60;;
61460;SDS011;47325;50.506;4.472;2023-11-18T00:40:09;10.90;;;6.70;;
61460;SDS011;47325;50.506;4.472;2023-11-18T00:45:54;12.40;;;6.50;;
61460;SDS011;47325;50.506;4.472;2023-11-18T00:51:38;10.50;;;6.50;;
61460;SDS011;47325;50.506;4.472;2023-11-18T00:57:26;11.20;;;6.40;;
61460;SDS011;47325;50.506;4.472;2023-11-18T01:03:11;10.00;;;6.10;;
61460;SDS011;47325;50.506;4.472;2023-11-18T01:09:08;11.70;;;6.00;;
61460;SDS011;47325;50.506;4.472;2023-11-18T01:14:56;9.90;;;5.70;;
61460;SDS011;47325;50.506;4.472;2023-11-18T01:20:40;10.70;;;5.90;;
61460;SDS011;47325;50.506;4.472;2023-11-18T01:26:27;9.10;;;5.70;;
61460;SDS011;47325;50.506;4.472;2023-11-18T01:32:12;9.40;;;5.30;;
61460;SDS011;47325;50.506;4.472;2023-11-18T01:37:56;10.80;;;5.60;;
61460;SDS011;47325;50.506;4.472;2023-11-18T01:43:41;9.00;;;5.20;;
61460;SDS011;47325;50.506;4.472;2023-11-18T01:49:27;8.00;;;5.10;;
61460;SDS011;47325;50.506;4.472;2023-11-18T01:55:12;7.80;;;4.80;;
61460;SDS011;47325;50.506;4.472;2023-11-18T02:00:59;9.50;;;4.80;;
61460;SDS011;47325;50.506;4.472;2023-11-18T02:06:45;9.20;;;5.00;;
61460;SDS011;47325;50.506;4.472;2023-11-18T02:12:31;9.70;;;4.80;;
61460;SDS011;47325;50.506;4.472;2023-11-18T02:18:18;7.70;;;4.60;;
61460;SDS011;47325;50.506;4.472;2023-11-18T02:24:02;10.00;;;4.70;;
61460;SDS011;47325;50.506;4.472;2023-11-18T02:29:47;9.80;;;5.10;;
61460;SDS011;47325;50.506;4.472;2023-11-18T02:35:34;10.60;;;4.80;;
61460;SDS011;47325;50.506;4.472;2023-11-18T02:41:19;11.00;;;4.70;;
61460;SDS011;47325;50.506;4.472;2023-11-18T02:47:04;11.80;;;4.40;;
61460;SDS011;47325;50.506;4.472;2023-11-18T02:52:52;9.70;;;4.80;;
61460;SDS011;47325;50.506;4.472;2023-11-18T02:58:37;9.10;;;4.10;;
61460;SDS011;47325;50.506;4.472;2023-11-18T03:04:24;9.90;;;3.90;;
61460;SDS011;47325;50.506;4.472;2023-11-18T03:10:11;8.90;;;4.00;;
61460;SDS011;47325;50.506;4.472;2023-11-18T03:15:56;9.30;;;3.70;;
61460;SDS011;47325;50.506;4.472;2023-11-18T03:21:42;7.10;;;3.80;;
61460;SDS011;47325;50.506;4.472;2023-11-18T03:27:27;6.80;;;3.80;;
61460;SDS011;47325;50.506;4.472;2023-11-18T03:33:11;6.90;;;3.70;;
61460;SDS011;47325;50.506;4.472;2023-11-18T03:38:59;8.00;;;4.00;;
61460;SDS011;47325;50.506;4.472;2023-11-18T03:44:44;7.00;;;3.60;;
61460;SDS011;47325;50.506;4.472;2023-11-18T03:50:39;8.60;;;3.60;;
61460;SDS011;47325;50.506;4.472;2023-11-18T03:56:27;8.40;;;3.50;;
61460;SDS011;47325;50.506;4.472;2023-11-18T04:02:15;8.30;;;3.30;;
61460;SDS011;47325;50.506;4.472;2023-11-18T04:08:00;5.50;;;3.00;;
61460;SDS011;47325;50.506;4.472;2023-11-18T04:13:45;5.90;;;3.00;;
61460;SDS011;47325;50.506;4.472;2023-11-18T04:19:34;7.30;;;3.10;;
61460;SDS011;47325;50.506;4.472;2023-11-18T04:25:18;9.10;;;3.00;;
61460;SDS011;47325;50.506;4.472;2023-11-18T04:31:03;7.10;;;2.80;;
61460;SDS011;47325;50.506;4.472;2023-11-18T04:37:00;9.30;;;3.00;;
61460;SDS011;47325;50.506;4.472;2023-11-18T04:42:45;7.60;;;2.90;;
61460;SDS011;47325;50.506;4.472;2023-11-18T04:48:29;5.70;;;2.60;;
61460;SDS011;47325;50.506;4.472;2023-11-18T04:54:15;7.40;;;3.00;;
61460;SDS011;47325;50.506;4.472;2023-11-18T05:00:01;4.60;;;2.40;;
61460;SDS011;47325;50.506;4.472;2023-11-18T05:05:46;7.70;;;2.90;;
61460;SDS011;47325;50.506;4.472;2023-11-18T05:11:31;6.00;;;2.40;;
61460;SDS011;47325;50.506;4.472;2023-11-18T05:17:16;4.60;;;2.30;;
61460;SDS011;47325;50.506;4.472;2023-11-18T05:23:01;4.80;;;2.30;;
61460;SDS011;47325;50.506;4.472;2023-11-18T05:28:47;5.40;;;2.10;;
61460;SDS011;47325;50.506;4.472;2023-11-18T05:34:32;5.70;;;2.30;;
61460;SDS011;47325;50.506;4.472;2023-11-18T05:40:19;6.00;;;2.20;;
61460;SDS011;47325;50.506;4.472;2023-11-18T05:46:04;3.60;;;2.20;;
61460;SDS011;47325;50.506;4.472;2023-11-18T05:51:50;5.70;;;2.10;;
61460;SDS011;47325;50.506;4.472;2023-11-18T05:57:35;6.00;;;2.20;;
61460;SDS011;47325;50.506;4.472;2023-11-18T06:03:25;4.50;;;2.10;;
61460;SDS011;47325;50.506;4.472;2023-11-18T06:09:09;4.00;;;2.10;;
61460;SDS011;47325;50.506;4.472;2023-11-18T06:14:58;4.20;;;1.90;;
61460;SDS011;47325;50.506;4.472;2023-11-18T06:20:45;6.90;;;2.10;;
61460;SDS011;47325;50.506;4.472;2023-11-18T06:26:30;4.10;;;1.90;;
61460;SDS011;47325;50.506;4.472;2023-11-18T06:32:18;6.10;;;2.40;;
61460;SDS011;47325;50.506;4.472;2023-11-18T06:38:05;4.90;;;2.10;;
61460;SDS011;47325;50.506;4.472;2023-11-18T06:43:51;3.50;;;1.80;;
61460;SDS011;47325;50.506;4.472;2023-11-18T06:49:39;3.00;;;1.90;;
61460;SDS011;47325;50.506;4.472;2023-11-18T06:55:28;3.50;;;2.00;;
61460;SDS011;47325;50.506;4.472;2023-11-18T07:01:16;5.40;;;2.00;;
61460;SDS011;47325;50.506;4.472;2023-11-18T07:07:01;4.30;;;1.90;;
61460;SDS011;47325;50.506;4.472;2023-11-18T07:12:49;4.40;;;1.80;;
61460;SDS011;47325;50.506;4.472;2023-11-18T07:18:33;7.10;;;2.50;;
61460;SDS011;47325;50.506;4.472;2023-11-18T07:24:18;6.10;;;2.00;;
61460;SDS011;47325;50.506;4.472;2023-11-18T07:30:04;4.80;;;2.00;;
61460;SDS011;47325;50.506;4.472;2023-11-18T07:35:53;5.30;;;2.20;;
61460;SDS011;47325;50.506;4.472;2023-11-18T07:41:37;5.50;;;2.20;;
61460;SDS011;47325;50.506;4.472;2023-11-18T07:47:22;16.40;;;2.50;;
61460;SDS011;47325;50.506;4.472;2023-11-18T07:53:09;5.80;;;2.70;;
61460;SDS011;47325;50.506;4.472;2023-11-18T07:58:54;8.20;;;2.70;;
61460;SDS011;47325;50.506;4.472;2023-11-18T08:04:42;6.60;;;2.60;;
61460;SDS011;47325;50.506;4.472;2023-11-18T08:10:29;7.10;;;2.50;;
61460;SDS011;47325;50.506;4.472;2023-11-18T08:16:13;5.80;;;2.80;;
61460;SDS011;47325;50.506;4.472;2023-11-18T08:22:02;6.30;;;2.50;;
61460;SDS011;47325;50.506;4.472;2023-11-18T08:27:53;6.80;;;2.80;;
61460;SDS011;47325;50.506;4.472;2023-11-18T08:33:38;8.80;;;2.60;;
61460;SDS011;47325;50.506;4.472;2023-11-18T08:39:26;5.40;;;2.40;;
61460;SDS011;47325;50.506;4.472;2023-11-18T08:45:14;5.60;;;2.60;;
61460;SDS011;47325;50.506;4.472;2023-11-18T08:50:58;4.30;;;2.40;;
61460;SDS011;47325;50.506;4.472;2023-11-18T08:56:44;7.50;;;2.60;;
61460;SDS011;47325;50.506;4.472;2023-11-18T09:02:33;5.80;;;2.50;;
61460;SDS011;47325;50.506;4.472;2023-11-18T09:08:34;6.50;;;2.50;;
61460;SDS011;47325;50.506;4.472;2023-11-18T09:14:20;5.90;;;2.50;;
61460;SDS011;47325;50.506;4.472;2023-11-18T09:20:05;5.40;;;2.60;;
61460;SDS011;47325;50.506;4.472;2023-11-18T09:25:56;5.70;;;2.30;;
61460;SDS011;47325;50.506;4.472;2023-11-18T09:31:41;4.50;;;2.10;;
61460;SDS011;47325;50.506;4.472;2023-11-18T09:37:26;4.90;;;2.20;;
61460;SDS011;47325;50.506;4.472;2023-11-18T09:43:10;5.00;;;2.50;;
61460;SDS011;47325;50.506;4.472;2023-11-18T09:48:57;3.70;;;2.20;;
61460;SDS011;47325;50.506;4.472;2023-11-18T09:54:45;4.10;;;2.20;;
61460;SDS011;47325;50.506;4.472;2023-11-18T10:00:35;4.80;;;2.30;;
61460;SDS011;47325;50.506;4.472;2023-11-18T10:06:20;6.00;;;2.20;;
61460;SDS011;47325;50.506;4.472;2023-11-18T10:12:06;5.00;;;2.10;;
61460;SDS011;47325;50.506;4.472;2023-11-18T10:17:59;4.60;;;2.20;;
61460;SDS011;47325;50.506;4.472;2023-11-18T10:24:04;4.90;;;2.40;;
61460;SDS011;47325;50.506;4.472;2023-11-18T10:29:48;5.00;;;2.20;;
61460;SDS011;47325;50.506;4.472;2023-11-18T10:35:33;3.70;;;1.90;;
61460;SDS011;47325;50.506;4.472;2023-11-18T10:41:18;3.10;;;1.80;;
61460;SDS011;47325;50.506;4.472;2023-11-18T10:47:06;4.30;;;1.80;;
61460;SDS011;47325;50.506;4.472;2023-11-18T10:52:54;3.60;;;1.90;;
61460;SDS011;47325;50.506;4.472;2023-11-18T10:58:39;4.00;;;1.70;;
61460;SDS011;47325;50.506;4.472;2023-11-18T11:04:28;2.80;;;1.60;;
61460;SDS011;47325;50.506;4.472;2023-11-18T11:10:18;3.40;;;1.60;;
61460;SDS011;47325;50.506;4.472;2023-11-18T11:16:02;3.50;;;1.80;;
61460;SDS011;47325;50.506;4.472;2023-11-18T11:21:52;3.00;;;1.60;;
61460;SDS011;47325;50.506;4.472;2023-11-18T11:27:41;3.30;;;1.60;;
61460;SDS011;47325;50.506;4.472;2023-11-18T11:33:31;3.30;;;1.40;;
61460;SDS011;47325;50.506;4.472;2023-11-18T11:39:16;3.80;;;1.40;;
61460;SDS011;47325;50.506;4.472;2023-11-18T11:45:05;3.40;;;1.50;;
61460;SDS011;47325;50.506;4.472;2023-11-18T11:50:53;3.10;;;1.40;;
61460;SDS011;47325;50.506;4.472;2023-11-18T11:56:42;2.30;;;1.20;;
61460;SDS011;47325;50.506;4.472;2023-11-18T12:02:28;3.80;;;1.10;;
61460;SDS011;47325;50.506;4.472;2023-11-18T12:08:14;2.10;;;1.00;;
61460;SDS011;47325;50.506;4.472;2023-11-18T12:14:07;2.00;;;1.10;;
61460;SDS011;47325;50.506;4.472;2023-11-18T12:19:53;2.00;;;1.00;;
61460;SDS011;47325;50.506;4.472;2023-11-18T12:25:39;2.90;;;1.10;;
61460;SDS011;47325;50.506;4.472;2023-11-18T12:37:33;3.50;;;1.30;;
61460;SDS011;47325;50.506;4.472;2023-11-18T12:43:23;1.70;;;1.00;;
61460;SDS011;47325;50.506;4.472;2023-11-18T12:49:12;2.70;;;1.10;;
61460;SDS011;47325;50.506;4.472;2023-11-18T12:55:00;1.60;;;1.00;;
61460;SDS011;47325;50.506;4.472;2023-11-18T13:00:46;1.20;;;0.90;;
61460;SDS011;47325;50.506;4.472;2023-11-18T13:06:31;2.10;;;1.00;;
61460;SDS011;47325;50.506;4.472;2023-11-18T13:12:16;2.40;;;1.10;;
61460;SDS011;47325;50.506;4.472;2023-11-18T13:18:05;1.80;;;1.10;;
61460;SDS011;47325;50.506;4.472;2023-11-18T13:23:53;1.70;;;1.20;;
61460;SDS011;47325;50.506;4.472;2023-11-18T13:29:43;2.00;;;1.10;;
61460;SDS011;47325;50.506;4.472;2023-11-18T13:35:29;1.70;;;1.00;;
61460;SDS011;47325;50.506;4.472;2023-11-18T13:41:17;1.70;;;1.00;;
61460;SDS011;47325;50.506;4.472;2023-11-18T13:47:05;1.50;;;0.90;;
61460;SDS011;47325;50.506;4.472;2023-11-18T13:52:49;1.60;;;1.00;;
61460;SDS011;47325;50.506;4.472;2023-11-18T13:58:35;1.50;;;0.90;;
61460;SDS011;47325;50.506;4.472;2023-11-18T14:04:21;1.20;;;0.80;;
61460;SDS011;47325;50.506;4.472;2023-11-18T14:10:07;1.00;;;0.80;;
61460;SDS011;47325;50.506;4.472;2023-11-18T14:15:54;2.70;;;0.80;;
61460;SDS011;47325;50.506;4.472;2023-11-18T14:21:39;1.60;;;0.90;;
61460;SDS011;47325;50.506;4.472;2023-11-18T14:27:24;1.90;;;0.90;;
61460;SDS011;47325;50.506;4.472;2023-11-18T14:33:08;1.60;;;0.90;;
61460;SDS011;47325;50.506;4.472;2023-11-18T14:38:53;1.70;;;0.80;;
61460;SDS011;47325;50.506;4.472;2023-11-18T14:44:37;1.90;;;0.80;;
61460;SDS011;47325;50.506;4.472;2023-11-18T14:50:22;1.50;;;0.80;;
61460;SDS011;47325;50.506;4.472;2023-11-18T14:56:14;2.50;;;1.00;;
61460;SDS011;47325;50.506;4.472;2023-11-18T15:01:58;1.70;;;1.00;;
61460;SDS011;47325;50.506;4.472;2023-11-18T15:07:44;3.80;;;1.10;;
61460;SDS011;47325;50.506;4.472;2023-11-18T15:13:29;3.70;;;1.30;;
61460;SDS011;47325;50.506;4.472;2023-11-18T15:19:15;2.60;;;1.20;;
61460;SDS011;47325;50.506;4.472;2023-11-18T15:25:04;4.50;;;1.40;;
61460;SDS011;47325;50.506;4.472;2023-11-18T15:30:48;5.20;;;1.80;;
61460;SDS011;47325;50.506;4.472;2023-11-18T15:36:33;4.90;;;1.90;;
61460;SDS011;47325;50.506;4.472;2023-11-18T15:42:18;6.10;;;1.90;;
61460;SDS011;47325;50.506;4.472;2023-11-18T15:48:02;4.20;;;1.90;;
61460;SDS011;47325;50.506;4.472;2023-11-18T15:53:48;4.30;;;1.60;;
61460;SDS011;47325;50.506;4.472;2023-11-18T15:59:32;3.70;;;1.60;;
61460;SDS011;47325;50.506;4.472;2023-11-18T16:05:18;3.30;;;1.60;;
61460;SDS011;47325;50.506;4.472;2023-11-18T16:11:05;3.20;;;1.40;;
61460;SDS011;47325;50.506;4.472;2023-11-18T16:16:50;3.80;;;1.40;;
61460;SDS011;47325;50.506;4.472;2023-11-18T16:22:36;3.00;;;1.60;;
61460;SDS011;47325;50.506;4.472;2023-11-18T16:28:20;3.70;;;1.40;;
61460;SDS011;47325;50.506;4.472;2023-11-18T16:34:06;2.70;;;1.20;;
61460;SDS011;47325;50.506;4.472;2023-11-18T16:39:50;3.60;;;1.30;;
61460;SDS011;47325;50.506;4.472;2023-11-18T16:45:35;4.00;;;1.50;;
61460;SDS011;47325;50.506;4.472;2023-11-18T16:51:20;3.40;;;1.30;;
61460;SDS011;47325;50.506;4.472;2023-11-18T16:57:04;3.40;;;1.20;;
61460;SDS011;47325;50.506;4.472;2023-11-18T17:02:49;3.50;;;1.50;;
61460;SDS011;47325;50.506;4.472;2023-11-18T17:08:35;3.20;;;1.50;;
61460;SDS011;47325;50.506;4.472;2023-11-18T17:14:20;3.90;;;1.50;;
61460;SDS011;47325;50.506;4.472;2023-11-18T17:20:05;3.20;;;1.40;;
61460;SDS011;47325;50.506;4.472;2023-11-18T17:25:49;4.00;;;1.50;;
61460;SDS011;47325;50.506;4.472;2023-11-18T17:31:35;2.60;;;1.50;;
61460;SDS011;47325;50.506;4.472;2023-11-18T17:37:20;3.30;;;1.60;;
61460;SDS011;47325;50.506;4.472;2023-11-18T17:43:05;3.40;;;1.40;;
61460;SDS011;47325;50.506;4.472;2023-11-18T17:48:49;4.00;;;1.30;;
61460;SDS011;47325;50.506;4.472;2023-11-18T17:54:34;2.30;;;1.30;;
61460;SDS011;47325;50.506;4.472;2023-11-18T18:00:23;3.10;;;1.40;;
61460;SDS011;47325;50.506;4.472;2023-11-18T18:06:08;1.70;;;1.20;;
61460;SDS011;47325;50.506;4.472;2023-11-18T18:11:55;2.10;;;1.30;;
61460;SDS011;47325;50.506;4.472;2023-11-18T18:17:39;2.40;;;1.30;;
61460;SDS011;47325;50.506;4.472;2023-11-18T18:23:23;2.10;;;1.40;;
61460;SDS011;47325;50.506;4.472;2023-11-18T18:29:08;2.10;;;1.40;;
61460;SDS011;47325;50.506;4.472;2023-11-18T18:34:53;3.20;;;1.30;;
61460;SDS011;47325;50.506;4.472;2023-11-18T18:40:37;2.40;;;1.30;;
61460;SDS011;47325;50.506;4.472;2023-11-18T18:46:22;1.90;;;1.30;;
61460;SDS011;47325;50.506;4.472;2023-11-18T18:52:07;4.30;;;1.20;;
61460;SDS011;47325;50.506;4.472;2023-11-18T18:57:51;2.50;;;1.20;;
61460;SDS011;47325;50.506;4.472;2023-11-18T19:03:35;1.50;;;1.10;;
61460;SDS011;47325;50.506;4.472;2023-11-18T19:09:20;2.40;;;1.30;;
61460;SDS011;47325;50.506;4.472;2023-11-18T19:15:05;1.80;;;1.30;;
61460;SDS011;47325;50.506;4.472;2023-11-18T19:20:49;1.60;;;1.30;;
61460;SDS011;47325;50.506;4.472;2023-11-18T19:26:33;1.70;;;1.10;;
61460;SDS011;47325;50.506;4.472;2023-11-18T19:32:18;2.00;;;1.20;;
61460;SDS011;47325;50.506;4.472;2023-11-18T19:38:02;2.50;;;1.20;;
61460;SDS011;47325;50.506;4.472;2023-11-18T19:43:46;2.10;;;1.30;;
61460;SDS011;47325;50.506;4.472;2023-11-18T19:49:30;2.20;;;1.40;;
61460;SDS011;47325;50.506;4.472;2023-11-18T19:55:15;2.10;;;1.20;;
61460;SDS011;47325;50.506;4.472;2023-11-18T20:00:59;2.20;;;1.20;;
61460;SDS011;47325;50.506;4.472;2023-11-18T20:06:43;2.00;;;1.50;;
61460;SDS011;47325;50.506;4.472;2023-11-18T20:12:27;2.60;;;1.20;;
61460;SDS011;47325;50.506;4.472;2023-11-18T20:18:15;1.40;;;1.10;;
61460;SDS011;47325;50.506;4.472;2023-11-18T20:23:59;1.60;;;1.10;;
61460;SDS011;47325;50.506;4.472;2023-11-18T20:29:43;1.70;;;1.10;;
61460;SDS011;47325;50.506;4.472;2023-11-18T20:35:27;1.20;;;1.10;;
61460;SDS011;47325;50.506;4.472;2023-11-18T20:41:13;4.50;;;1.10;;
61460;SDS011;47325;50.506;4.472;2023-11-18T20:47:01;1.70;;;1.10;;
61460;SDS011;47325;50.506;4.472;2023-11-18T20:52:45;1.40;;;1.10;;
61460;SDS011;47325;50.506;4.472;2023-11-18T20:58:31;1.60;;;1.00;;
61460;SDS011;47325;50.506;4.472;2023-11-18T21:04:15;1.50;;;1.00;;
61460;SDS011;47325;50.506;4.472;2023-11-18T21:10:00;2.60;;;1.10;;
61460;SDS011;47325;50.506;4.472;2023-11-18T21:15:44;1.40;;;1.10;;
61460;SDS011;47325;50.506;4.472;2023-11-18T21:21:28;1.40;;;1.10;;
61460;SDS011;47325;50.506;4.472;2023-11-18T21:27:12;2.00;;;1.30;;
61460;SDS011;47325;50.506;4.472;2023-11-18T21:32:56;2.00;;;1.30;;
61460;SDS011;47325;50.506;4.472;2023-11-18T21:38:41;2.00;;;1.20;;
61460;SDS011;47325;50.506;4.472;2023-11-18T21:44:34;2.40;;;1.50;;
61460;SDS011;47325;50.506;4.472;2023-11-18T21:50:19;1.80;;;1.30;;
61460;SDS011;47325;50.506;4.472;2023-11-18T21:56:04;3.00;;;1.60;;
61460;SDS011;47325;50.506;4.472;2023-11-18T22:01:48;1.80;;;1.40;;
61460;SDS011;47325;50.506;4.472;2023-11-18T22:07:32;3.50;;;1.60;;
61460;SDS011;47325;50.506;4.472;2023-11-18T22:13:16;2.30;;;1.40;;
61460;SDS011;47325;50.506;4.472;2023-11-18T22:19:01;4.30;;;1.60;;
61460;SDS011;47325;50.506;4.472;2023-11-18T22:24:46;3.10;;;1.30;;
61460;SDS011;47325;50.506;4.472;2023-11-18T22:30:30;2.00;;;1.20;;
61460;SDS011;47325;50.506;4.472;2023-11-18T22:36:14;3.30;;;1.40;;
61460;SDS011;47325;50.506;4.472;2023-11-18T22:41:59;1.60;;;1.30;;
61460;SDS011;47325;50.506;4.472;2023-11-18T22:47:43;1.80;;;1.30;;
61460;SDS011;47325;50.506;4.472;2023-11-18T22:53:29;2.30;;;1.60;;
61460;SDS011;47325;50.506;4.472;2023-11-18T22:59:13;4.70;;;1.40;;
61460;SDS011;47325;50.506;4.472;2023-11-18T23:04:57;4.00;;;1.40;;
61460;SDS011;47325;50.506;4.472;2023-11-18T23:10:41;3.20;;;1.50;;
61460;SDS011;47325;50.506;4.472;2023-11-18T23:16:26;3.60;;;1.60;;
61460;SDS011;47325;50.506;4.472;2023-11-18T23:22:10;4.00;;;1.60;;
61460;SDS011;47325;50.506;4.472;2023-11-18T23:27:55;3.30;;;1.60;;
61460;SDS011;47325;50.506;4.472;2023-11-18T23:33:44;3.30;;;1.60;;
61460;SDS011;47325;50.506;4.472;2023-11-18T23:39:28;3.60;;;1.60;;
61460;SDS011;47325;50.506;4.472;2023-11-18T23:45:13;4.10;;;1.70;;
61460;SDS011;47325;50.506;4.472;2023-11-18T23:50:57;3.60;;;1.90;;
61460;SDS011;47325;50.506;4.472;2023-11-18T23:56:42;3.10;;;1.60;;
